Аэропорт: Иркутск. Иркутск

ICAO: UIII

METAR:
2021-07-28 14:00:00
UIII 281400Z 19003MPS 8000 NSC 19/14 Q1002 R12/CLRD60 NOSIG RMK QFE709/0946
METAR:
2021-07-28 11:00:00
TAF UIII 281100Z 2812/2912 16003MPS 5000 FU BR NSC TEMPO 2814/2824 0500 FG VV001 BECMG 2904/2905 30006G12MPS BECMG 2905/2906 -SHRA BKN015CB